sensor_id;sensor_type;location;lat;lon;timestamp;temperature;humidity
29939;DHT22;16799;50.844;5.304;2023-04-07T00:01:25;8.60;99.90
29939;DHT22;16799;50.844;5.304;2023-04-07T00:03:51;8.70;99.90
29939;DHT22;16799;50.844;5.304;2023-04-07T00:06:17;8.70;99.90
29939;DHT22;16799;50.844;5.304;2023-04-07T00:08:43;8.60;99.90
29939;DHT22;16799;50.844;5.304;2023-04-07T00:11:08;8.60;99.90
29939;DHT22;16799;50.844;5.304;2023-04-07T00:13:34;8.50;99.90
29939;DHT22;16799;50.844;5.304;2023-04-07T00:15:59;8.50;99.90
29939;DHT22;16799;50.844;5.304;2023-04-07T00:18:25;8.50;99.90
29939;DHT22;16799;50.844;5.304;2023-04-07T00:20:51;8.50;99.90
29939;DHT22;16799;50.844;5.304;2023-04-07T00:23:17;8.60;99.90
29939;DHT22;16799;50.844;5.304;2023-04-07T00:25:42;8.60;99.90
29939;DHT22;16799;50.844;5.304;2023-04-07T00:28:08;8.60;99.90
29939;DHT22;16799;50.844;5.304;2023-04-07T00:30:34;8.60;99.90
29939;DHT22;16799;50.844;5.304;2023-04-07T00:32:59;8.60;99.90
29939;DHT22;16799;50.844;5.304;2023-04-07T00:35:25;8.60;99.90
29939;DHT22;16799;50.844;5.304;2023-04-07T00:37:51;8.70;99.90
29939;DHT22;16799;50.844;5.304;2023-04-07T00:40:16;8.70;99.90
29939;DHT22;16799;50.844;5.304;2023-04-07T00:42:42;8.80;99.90
29939;DHT22;16799;50.844;5.304;2023-04-07T00:45:08;8.90;99.90
29939;DHT22;16799;50.844;5.304;2023-04-07T00:47:35;9.00;99.90
29939;DHT22;16799;50.844;5.304;2023-04-07T00:50:03;8.80;99.90
29939;DHT22;16799;50.844;5.304;2023-04-07T00:52:29;8.80;99.90
29939;DHT22;16799;50.844;5.304;2023-04-07T00:54:57;8.80;99.90
29939;DHT22;16799;50.844;5.304;2023-04-07T00:57:24;8.70;99.90
29939;DHT22;16799;50.844;5.304;2023-04-07T00:59:53;8.60;99.90
29939;DHT22;16799;50.844;5.304;2023-04-07T01:02:30;8.50;99.90
29939;DHT22;16799;50.844;5.304;2023-04-07T01:05:20;8.40;99.90
29939;DHT22;16799;50.844;5.304;2023-04-07T01:10:32;8.30;99.90
29939;DHT22;16799;50.844;5.304;2023-04-07T01:13:29;8.30;99.90
29939;DHT22;16799;50.844;5.304;2023-04-07T01:15:58;8.40;99.90
29939;DHT22;16799;50.844;5.304;2023-04-07T01:18:35;8.40;99.90
29939;DHT22;16799;50.844;5.304;2023-04-07T01:21:10;8.30;99.90
29939;DHT22;16799;50.844;5.304;2023-04-07T01:24:02;8.30;99.90
29939;DHT22;16799;50.844;5.304;2023-04-07T01:26:33;8.30;99.90
29939;DHT22;16799;50.844;5.304;2023-04-07T01:29:06;8.30;99.90
29939;DHT22;16799;50.844;5.304;2023-04-07T01:31:39;8.20;99.90
29939;DHT22;16799;50.844;5.304;2023-04-07T01:34:09;8.20;99.90
29939;DHT22;16799;50.844;5.304;2023-04-07T01:36:35;8.20;99.90
29939;DHT22;16799;50.844;5.304;2023-04-07T01:39:01;8.20;99.90
29939;DHT22;16799;50.844;5.304;2023-04-07T01:41:27;8.10;99.90
29939;DHT22;16799;50.844;5.304;2023-04-07T01:43:54;8.10;99.90
29939;DHT22;16799;50.844;5.304;2023-04-07T01:46:20;8.10;99.90
29939;DHT22;16799;50.844;5.304;2023-04-07T01:48:47;8.00;99.90
29939;DHT22;16799;50.844;5.304;2023-04-07T01:51:13;8.00;99.90
29939;DHT22;16799;50.844;5.304;2023-04-07T01:53:44;8.00;99.90
29939;DHT22;16799;50.844;5.304;2023-04-07T01:56:11;8.00;99.90
29939;DHT22;16799;50.844;5.304;2023-04-07T01:58:36;8.00;99.90
29939;DHT22;16799;50.844;5.304;2023-04-07T02:01:02;8.00;99.90
29939;DHT22;16799;50.844;5.304;2023-04-07T02:03:42;8.00;99.90
29939;DHT22;16799;50.844;5.304;2023-04-07T02:06:11;8.00;99.90
29939;DHT22;16799;50.844;5.304;2023-04-07T02:08:41;8.00;99.90
29939;DHT22;16799;50.844;5.304;2023-04-07T02:11:12;8.00;99.90
29939;DHT22;16799;50.844;5.304;2023-04-07T02:13:39;8.00;99.90
29939;DHT22;16799;50.844;5.304;2023-04-07T02:16:07;8.00;99.90
29939;DHT22;16799;50.844;5.304;2023-04-07T02:18:33;8.00;99.90
29939;DHT22;16799;50.844;5.304;2023-04-07T02:21:00;8.10;99.90
29939;DHT22;16799;50.844;5.304;2023-04-07T02:23:27;8.10;99.90
29939;DHT22;16799;50.844;5.304;2023-04-07T02:25:56;8.00;99.90
29939;DHT22;16799;50.844;5.304;2023-04-07T02:28:22;8.10;99.90
29939;DHT22;16799;50.844;5.304;2023-04-07T02:30:48;8.10;99.90
29939;DHT22;16799;50.844;5.304;2023-04-07T02:33:13;8.10;99.90
29939;DHT22;16799;50.844;5.304;2023-04-07T02:35:40;8.10;99.90
29939;DHT22;16799;50.844;5.304;2023-04-07T02:38:05;8.20;99.90
29939;DHT22;16799;50.844;5.304;2023-04-07T02:40:31;8.20;99.90
29939;DHT22;16799;50.844;5.304;2023-04-07T02:42:56;8.20;99.90
29939;DHT22;16799;50.844;5.304;2023-04-07T02:45:22;8.20;99.90
29939;DHT22;16799;50.844;5.304;2023-04-07T02:47:48;8.20;99.90
29939;DHT22;16799;50.844;5.304;2023-04-07T02:50:13;8.20;99.90
29939;DHT22;16799;50.844;5.304;2023-04-07T02:52:39;8.20;99.90
29939;DHT22;16799;50.844;5.304;2023-04-07T02:55:05;8.20;99.90
29939;DHT22;16799;50.844;5.304;2023-04-07T02:57:31;8.30;99.90
29939;DHT22;16799;50.844;5.304;2023-04-07T02:59:57;8.30;99.90
29939;DHT22;16799;50.844;5.304;2023-04-07T03:02:23;8.20;99.90
29939;DHT22;16799;50.844;5.304;2023-04-07T03:04:50;8.20;99.90
29939;DHT22;16799;50.844;5.304;2023-04-07T03:07:17;8.10;99.90
29939;DHT22;16799;50.844;5.304;2023-04-07T03:09:43;8.10;99.90
29939;DHT22;16799;50.844;5.304;2023-04-07T03:12:09;8.10;99.90
29939;DHT22;16799;50.844;5.304;2023-04-07T03:14:35;8.10;99.90
29939;DHT22;16799;50.844;5.304;2023-04-07T03:17:02;8.10;99.90
29939;DHT22;16799;50.844;5.304;2023-04-07T03:19:27;8.10;99.90
29939;DHT22;16799;50.844;5.304;2023-04-07T03:21:53;8.10;99.90
29939;DHT22;16799;50.844;5.304;2023-04-07T03:24:19;8.10;99.90
29939;DHT22;16799;50.844;5.304;2023-04-07T03:26:44;8.10;99.90
29939;DHT22;16799;50.844;5.304;2023-04-07T03:29:10;8.10;99.90
29939;DHT22;16799;50.844;5.304;2023-04-07T03:31:36;8.10;99.90
29939;DHT22;16799;50.844;5.304;2023-04-07T03:34:03;8.00;99.90
29939;DHT22;16799;50.844;5.304;2023-04-07T03:36:30;8.00;99.90
29939;DHT22;16799;50.844;5.304;2023-04-07T03:38:56;8.00;99.90
29939;DHT22;16799;50.844;5.304;2023-04-07T03:41:22;8.00;99.90
29939;DHT22;16799;50.844;5.304;2023-04-07T03:43:48;8.00;99.90
29939;DHT22;16799;50.844;5.304;2023-04-07T03:46:13;8.00;99.90
29939;DHT22;16799;50.844;5.304;2023-04-07T03:48:39;8.00;99.90
29939;DHT22;16799;50.844;5.304;2023-04-07T03:51:06;8.10;99.90
29939;DHT22;16799;50.844;5.304;2023-04-07T03:53:31;8.10;99.90
29939;DHT22;16799;50.844;5.304;2023-04-07T03:55:57;8.20;99.90
29939;DHT22;16799;50.844;5.304;2023-04-07T03:58:23;8.10;99.90
29939;DHT22;16799;50.844;5.304;2023-04-07T04:00:49;8.20;99.90
29939;DHT22;16799;50.844;5.304;2023-04-07T04:03:14;8.30;99.90
29939;DHT22;16799;50.844;5.304;2023-04-07T04:05:40;8.30;99.90
29939;DHT22;16799;50.844;5.304;2023-04-07T04:08:06;8.30;99.90
29939;DHT22;16799;50.844;5.304;2023-04-07T04:10:32;8.30;99.90
29939;DHT22;16799;50.844;5.304;2023-04-07T04:12:57;8.30;99.90
29939;DHT22;16799;50.844;5.304;2023-04-07T04:15:25;8.40;99.90
29939;DHT22;16799;50.844;5.304;2023-04-07T04:17:51;8.40;99.90
29939;DHT22;16799;50.844;5.304;2023-04-07T04:20:17;8.40;99.90
29939;DHT22;16799;50.844;5.304;2023-04-07T04:22:42;8.40;99.90
29939;DHT22;16799;50.844;5.304;2023-04-07T04:25:08;8.40;99.90
29939;DHT22;16799;50.844;5.304;2023-04-07T04:27:34;8.50;99.90
29939;DHT22;16799;50.844;5.304;2023-04-07T04:30:00;8.50;99.90
29939;DHT22;16799;50.844;5.304;2023-04-07T04:32:25;8.60;99.90
29939;DHT22;16799;50.844;5.304;2023-04-07T04:34:51;8.60;99.90
29939;DHT22;16799;50.844;5.304;2023-04-07T04:37:17;8.40;99.90
29939;DHT22;16799;50.844;5.304;2023-04-07T04:39:42;8.20;99.90
29939;DHT22;16799;50.844;5.304;2023-04-07T04:42:08;8.20;99.90
29939;DHT22;16799;50.844;5.304;2023-04-07T04:44:34;8.20;99.90
29939;DHT22;16799;50.844;5.304;2023-04-07T04:46:59;8.20;99.90
29939;DHT22;16799;50.844;5.304;2023-04-07T04:49:25;8.00;99.90
29939;DHT22;16799;50.844;5.304;2023-04-07T04:51:51;8.00;99.90
29939;DHT22;16799;50.844;5.304;2023-04-07T04:54:18;7.90;99.90
29939;DHT22;16799;50.844;5.304;2023-04-07T04:56:44;7.90;99.90
29939;DHT22;16799;50.844;5.304;2023-04-07T04:59:09;7.90;99.90
29939;DHT22;16799;50.844;5.304;2023-04-07T05:01:35;7.90;99.90
29939;DHT22;16799;50.844;5.304;2023-04-07T05:04:01;8.10;99.90
29939;DHT22;16799;50.844;5.304;2023-04-07T05:06:26;7.90;99.90
29939;DHT22;16799;50.844;5.304;2023-04-07T05:08:53;7.70;99.90
29939;DHT22;16799;50.844;5.304;2023-04-07T05:11:18;7.60;99.90
29939;DHT22;16799;50.844;5.304;2023-04-07T05:13:44;7.60;99.90
29939;DHT22;16799;50.844;5.304;2023-04-07T05:16:10;7.60;99.90
29939;DHT22;16799;50.844;5.304;2023-04-07T05:18:35;7.60;99.90
29939;DHT22;16799;50.844;5.304;2023-04-07T05:21:01;7.50;99.90
29939;DHT22;16799;50.844;5.304;2023-04-07T05:23:27;7.40;99.90
29939;DHT22;16799;50.844;5.304;2023-04-07T05:25:52;7.30;99.90
29939;DHT22;16799;50.844;5.304;2023-04-07T05:28:18;7.20;99.90
29939;DHT22;16799;50.844;5.304;2023-04-07T05:30:44;7.20;99.90
29939;DHT22;16799;50.844;5.304;2023-04-07T05:33:10;7.10;99.90
29939;DHT22;16799;50.844;5.304;2023-04-07T05:35:35;7.00;99.90
29939;DHT22;16799;50.844;5.304;2023-04-07T05:38:01;7.00;99.90
29939;DHT22;16799;50.844;5.304;2023-04-07T05:40:27;6.90;99.90
29939;DHT22;16799;50.844;5.304;2023-04-07T05:42:54;7.00;99.90
29939;DHT22;16799;50.844;5.304;2023-04-07T05:45:20;7.10;99.90
29939;DHT22;16799;50.844;5.304;2023-04-07T05:47:46;7.10;99.90
29939;DHT22;16799;50.844;5.304;2023-04-07T05:50:15;7.10;99.90
29939;DHT22;16799;50.844;5.304;2023-04-07T05:52:41;7.20;99.90
29939;DHT22;16799;50.844;5.304;2023-04-07T05:55:07;7.40;99.90
29939;DHT22;16799;50.844;5.304;2023-04-07T05:57:32;7.50;99.90
29939;DHT22;16799;50.844;5.304;2023-04-07T05:59:59;7.70;99.90
29939;DHT22;16799;50.844;5.304;2023-04-07T06:02:24;7.70;99.90
29939;DHT22;16799;50.844;5.304;2023-04-07T06:04:50;7.70;99.90
29939;DHT22;16799;50.844;5.304;2023-04-07T06:07:16;7.70;99.90
29939;DHT22;16799;50.844;5.304;2023-04-07T06:09:41;7.70;99.90
29939;DHT22;16799;50.844;5.304;2023-04-07T06:12:07;7.70;99.90
29939;DHT22;16799;50.844;5.304;2023-04-07T06:14:34;7.80;99.90
29939;DHT22;16799;50.844;5.304;2023-04-07T06:16:59;7.80;99.90
29939;DHT22;16799;50.844;5.304;2023-04-07T06:19:25;7.90;99.90
29939;DHT22;16799;50.844;5.304;2023-04-07T06:21:54;7.80;99.90
29939;DHT22;16799;50.844;5.304;2023-04-07T06:24:19;7.80;99.90
29939;DHT22;16799;50.844;5.304;2023-04-07T06:26:47;7.70;99.90
29939;DHT22;16799;50.844;5.304;2023-04-07T06:29:13;7.70;99.90
29939;DHT22;16799;50.844;5.304;2023-04-07T06:31:39;7.60;99.90
29939;DHT22;16799;50.844;5.304;2023-04-07T06:34:05;7.70;99.90
29939;DHT22;16799;50.844;5.304;2023-04-07T06:36:31;7.70;99.90
29939;DHT22;16799;50.844;5.304;2023-04-07T06:38:58;7.70;99.90
29939;DHT22;16799;50.844;5.304;2023-04-07T06:41:24;7.80;99.90
29939;DHT22;16799;50.844;5.304;2023-04-07T06:43:49;7.90;99.90
29939;DHT22;16799;50.844;5.304;2023-04-07T06:46:18;8.00;99.90
29939;DHT22;16799;50.844;5.304;2023-04-07T06:48:44;8.00;99.90
29939;DHT22;16799;50.844;5.304;2023-04-07T06:51:10;8.30;99.90
29939;DHT22;16799;50.844;5.304;2023-04-07T06:53:36;8.50;99.90
29939;DHT22;16799;50.844;5.304;2023-04-07T06:56:09;8.40;99.90
29939;DHT22;16799;50.844;5.304;2023-04-07T06:58:36;8.20;99.90
29939;DHT22;16799;50.844;5.304;2023-04-07T07:01:03;8.50;99.90
29939;DHT22;16799;50.844;5.304;2023-04-07T07:03:29;8.70;99.90
29939;DHT22;16799;50.844;5.304;2023-04-07T07:05:56;8.60;99.90
29939;DHT22;16799;50.844;5.304;2023-04-07T07:08:22;8.50;99.90
29939;DHT22;16799;50.844;5.304;2023-04-07T07:10:48;8.60;99.90
29939;DHT22;16799;50.844;5.304;2023-04-07T07:13:14;8.80;99.90
29939;DHT22;16799;50.844;5.304;2023-04-07T07:15:39;8.80;99.90
29939;DHT22;16799;50.844;5.304;2023-04-07T07:18:05;8.90;99.90
29939;DHT22;16799;50.844;5.304;2023-04-07T07:20:31;9.00;99.90
29939;DHT22;16799;50.844;5.304;2023-04-07T07:22:56;8.90;99.90
29939;DHT22;16799;50.844;5.304;2023-04-07T07:25:23;8.70;99.90
29939;DHT22;16799;50.844;5.304;2023-04-07T07:27:51;8.80;99.90
29939;DHT22;16799;50.844;5.304;2023-04-07T07:30:21;9.00;99.90
29939;DHT22;16799;50.844;5.304;2023-04-07T07:32:47;8.90;99.90
29939;DHT22;16799;50.844;5.304;2023-04-07T07:35:13;8.90;99.90
29939;DHT22;16799;50.844;5.304;2023-04-07T07:37:39;8.80;99.90
29939;DHT22;16799;50.844;5.304;2023-04-07T07:40:05;8.80;99.90
29939;DHT22;16799;50.844;5.304;2023-04-07T07:42:31;8.90;99.90
29939;DHT22;16799;50.844;5.304;2023-04-07T07:44:57;9.00;99.90
29939;DHT22;16799;50.844;5.304;2023-04-07T07:47:23;9.20;99.90
29939;DHT22;16799;50.844;5.304;2023-04-07T07:49:49;9.40;99.90
29939;DHT22;16799;50.844;5.304;2023-04-07T07:52:15;9.30;99.90
29939;DHT22;16799;50.844;5.304;2023-04-07T07:54:40;9.40;99.90
29939;DHT22;16799;50.844;5.304;2023-04-07T07:57:06;9.30;99.90
29939;DHT22;16799;50.844;5.304;2023-04-07T07:59:32;9.30;99.90
29939;DHT22;16799;50.844;5.304;2023-04-07T08:01:58;9.10;99.90
29939;DHT22;16799;50.844;5.304;2023-04-07T08:04:23;9.20;99.90
29939;DHT22;16799;50.844;5.304;2023-04-07T08:06:50;9.40;99.90
29939;DHT22;16799;50.844;5.304;2023-04-07T08:09:19;9.30;99.90
29939;DHT22;16799;50.844;5.304;2023-04-07T08:11:45;9.20;99.90
29939;DHT22;16799;50.844;5.304;2023-04-07T08:14:13;9.00;99.90
29939;DHT22;16799;50.844;5.304;2023-04-07T08:16:38;9.20;99.90
29939;DHT22;16799;50.844;5.304;2023-04-07T08:19:05;9.30;99.90
29939;DHT22;16799;50.844;5.304;2023-04-07T08:21:30;9.20;99.90
29939;DHT22;16799;50.844;5.304;2023-04-07T08:23:56;9.20;99.90
29939;DHT22;16799;50.844;5.304;2023-04-07T08:26:22;9.30;99.90
29939;DHT22;16799;50.844;5.304;2023-04-07T08:28:49;9.30;99.90
29939;DHT22;16799;50.844;5.304;2023-04-07T08:31:18;9.30;99.90
29939;DHT22;16799;50.844;5.304;2023-04-07T08:33:43;9.40;99.90
29939;DHT22;16799;50.844;5.304;2023-04-07T08:36:09;9.70;99.90
29939;DHT22;16799;50.844;5.304;2023-04-07T08:38:35;9.90;99.90
29939;DHT22;16799;50.844;5.304;2023-04-07T08:41:07;10.00;99.90
29939;DHT22;16799;50.844;5.304;2023-04-07T08:43:35;10.00;99.90
29939;DHT22;16799;50.844;5.304;2023-04-07T08:46:02;10.10;99.90
29939;DHT22;16799;50.844;5.304;2023-04-07T08:48:29;10.10;99.90
29939;DHT22;16799;50.844;5.304;2023-04-07T08:51:05;10.20;99.90
29939;DHT22;16799;50.844;5.304;2023-04-07T08:53:40;10.50;99.90
29939;DHT22;16799;50.844;5.304;2023-04-07T08:56:10;10.40;99.90
29939;DHT22;16799;50.844;5.304;2023-04-07T08:58:36;10.50;99.90
29939;DHT22;16799;50.844;5.304;2023-04-07T09:01:04;10.80;99.90
29939;DHT22;16799;50.844;5.304;2023-04-07T09:03:32;11.40;99.90
29939;DHT22;16799;50.844;5.304;2023-04-07T09:05:59;11.60;99.90
29939;DHT22;16799;50.844;5.304;2023-04-07T09:08:26;11.50;99.90
29939;DHT22;16799;50.844;5.304;2023-04-07T09:10:52;11.30;99.90
29939;DHT22;16799;50.844;5.304;2023-04-07T09:13:18;10.90;99.90
29939;DHT22;16799;50.844;5.304;2023-04-07T09:15:44;10.80;99.90
29939;DHT22;16799;50.844;5.304;2023-04-07T09:18:10;10.50;99.90
29939;DHT22;16799;50.844;5.304;2023-04-07T09:21:00;10.40;99.90
29939;DHT22;16799;50.844;5.304;2023-04-07T09:25:56;11.60;99.90
29939;DHT22;16799;50.844;5.304;2023-04-07T09:28:24;11.60;99.90
29939;DHT22;16799;50.844;5.304;2023-04-07T09:30:54;11.70;99.90
29939;DHT22;16799;50.844;5.304;2023-04-07T09:33:29;11.30;99.90
29939;DHT22;16799;50.844;5.304;2023-04-07T09:35:55;11.00;99.90
29939;DHT22;16799;50.844;5.304;2023-04-07T09:38:21;10.90;99.90
29939;DHT22;16799;50.844;5.304;2023-04-07T09:40:47;11.20;99.90
29939;DHT22;16799;50.844;5.304;2023-04-07T09:43:17;11.50;99.90
29939;DHT22;16799;50.844;5.304;2023-04-07T09:45:43;11.60;99.90
29939;DHT22;16799;50.844;5.304;2023-04-07T09:48:20;11.50;99.90
29939;DHT22;16799;50.844;5.304;2023-04-07T09:50:46;11.50;99.90
29939;DHT22;16799;50.844;5.304;2023-04-07T09:53:17;11.50;99.90
29939;DHT22;16799;50.844;5.304;2023-04-07T09:55:47;11.50;99.90
29939;DHT22;16799;50.844;5.304;2023-04-07T09:58:14;11.80;99.90
29939;DHT22;16799;50.844;5.304;2023-04-07T10:00:41;12.30;99.90
29939;DHT22;16799;50.844;5.304;2023-04-07T10:03:07;12.60;99.90
29939;DHT22;16799;50.844;5.304;2023-04-07T10:05:33;12.60;99.90
29939;DHT22;16799;50.844;5.304;2023-04-07T10:08:05;12.20;99.90
29939;DHT22;16799;50.844;5.304;2023-04-07T10:10:31;12.10;99.90
29939;DHT22;16799;50.844;5.304;2023-04-07T10:12:57;12.10;99.90
29939;DHT22;16799;50.844;5.304;2023-04-07T10:15:23;11.60;99.90
29939;DHT22;16799;50.844;5.304;2023-04-07T10:17:50;11.40;99.90
29939;DHT22;16799;50.844;5.304;2023-04-07T10:20:17;11.50;99.90
29939;DHT22;16799;50.844;5.304;2023-04-07T10:22:47;11.60;99.90
29939;DHT22;16799;50.844;5.304;2023-04-07T10:25:16;12.00;99.90
29939;DHT22;16799;50.844;5.304;2023-04-07T10:30:19;11.60;99.90
29939;DHT22;16799;50.844;5.304;2023-04-07T10:32:46;11.40;99.90
29939;DHT22;16799;50.844;5.304;2023-04-07T10:35:13;11.30;99.90
29939;DHT22;16799;50.844;5.304;2023-04-07T10:37:39;11.30;99.90
29939;DHT22;16799;50.844;5.304;2023-04-07T10:42:51;11.70;99.90
29939;DHT22;16799;50.844;5.304;2023-04-07T10:48:13;13.90;99.90
29939;DHT22;16799;50.844;5.304;2023-04-07T10:50:39;14.20;99.90
29939;DHT22;16799;50.844;5.304;2023-04-07T10:53:14;14.40;99.90
29939;DHT22;16799;50.844;5.304;2023-04-07T10:55:46;15.70;98.00
29939;DHT22;16799;50.844;5.304;2023-04-07T10:58:26;16.30;99.90
29939;DHT22;16799;50.844;5.304;2023-04-07T11:03:29;18.70;94.40
29939;DHT22;16799;50.844;5.304;2023-04-07T11:06:09;17.90;93.70
29939;DHT22;16799;50.844;5.304;2023-04-07T11:08:40;17.40;92.30
29939;DHT22;16799;50.844;5.304;2023-04-07T11:11:07;16.60;93.70
29939;DHT22;16799;50.844;5.304;2023-04-07T11:13:44;15.20;99.90
29939;DHT22;16799;50.844;5.304;2023-04-07T11:16:14;15.20;99.90
29939;DHT22;16799;50.844;5.304;2023-04-07T11:18:42;14.80;99.90
29939;DHT22;16799;50.844;5.304;2023-04-07T11:21:08;14.50;99.90
29939;DHT22;16799;50.844;5.304;2023-04-07T11:23:38;14.10;99.90
29939;DHT22;16799;50.844;5.304;2023-04-07T11:26:04;14.10;99.90
29939;DHT22;16799;50.844;5.304;2023-04-07T11:28:30;14.10;99.90
29939;DHT22;16799;50.844;5.304;2023-04-07T11:30:56;13.90;99.90
29939;DHT22;16799;50.844;5.304;2023-04-07T11:33:27;14.10;99.90
29939;DHT22;16799;50.844;5.304;2023-04-07T11:35:58;13.60;99.90
29939;DHT22;16799;50.844;5.304;2023-04-07T11:38:26;14.70;99.90
29939;DHT22;16799;50.844;5.304;2023-04-07T11:40:52;17.00;98.50
29939;DHT22;16799;50.844;5.304;2023-04-07T11:43:22;19.20;89.50
29939;DHT22;16799;50.844;5.304;2023-04-07T11:48:33;18.70;91.00
29939;DHT22;16799;50.844;5.304;2023-04-07T11:51:00;16.20;94.10
29939;DHT22;16799;50.844;5.304;2023-04-07T11:53:34;15.60;96.50
29939;DHT22;16799;50.844;5.304;2023-04-07T11:58:37;14.50;99.90
29939;DHT22;16799;50.844;5.304;2023-04-07T12:01:05;14.10;99.90
29939;DHT22;16799;50.844;5.304;2023-04-07T12:03:35;13.50;99.90
29939;DHT22;16799;50.844;5.304;2023-04-07T12:06:02;13.20;99.90
29939;DHT22;16799;50.844;5.304;2023-04-07T12:08:42;13.00;99.90
29939;DHT22;16799;50.844;5.304;2023-04-07T12:11:09;12.70;99.90
29939;DHT22;16799;50.844;5.304;2023-04-07T12:13:36;12.90;99.90
29939;DHT22;16799;50.844;5.304;2023-04-07T12:16:01;13.10;99.90
29939;DHT22;16799;50.844;5.304;2023-04-07T12:18:27;13.40;99.90
29939;DHT22;16799;50.844;5.304;2023-04-07T12:20:53;13.80;99.90
29939;DHT22;16799;50.844;5.304;2023-04-07T12:23:19;14.40;99.90
29939;DHT22;16799;50.844;5.304;2023-04-07T12:25:45;14.80;99.90
29939;DHT22;16799;50.844;5.304;2023-04-07T12:28:11;14.30;99.90
29939;DHT22;16799;50.844;5.304;2023-04-07T12:30:36;14.40;99.90
29939;DHT22;16799;50.844;5.304;2023-04-07T12:33:02;14.80;99.90
29939;DHT22;16799;50.844;5.304;2023-04-07T12:35:28;15.20;99.90
29939;DHT22;16799;50.844;5.304;2023-04-07T12:37:55;14.90;96.90
29939;DHT22;16799;50.844;5.304;2023-04-07T12:40:24;14.50;99.90
29939;DHT22;16799;50.844;5.304;2023-04-07T12:42:50;14.50;99.90
29939;DHT22;16799;50.844;5.304;2023-04-07T12:45:16;14.80;99.90
29939;DHT22;16799;50.844;5.304;2023-04-07T12:47:43;14.70;99.90
29939;DHT22;16799;50.844;5.304;2023-04-07T12:50:09;14.80;99.90
29939;DHT22;16799;50.844;5.304;2023-04-07T12:52:35;15.00;99.90
29939;DHT22;16799;50.844;5.304;2023-04-07T12:55:01;14.90;99.90
29939;DHT22;16799;50.844;5.304;2023-04-07T12:57:27;14.80;99.90
29939;DHT22;16799;50.844;5.304;2023-04-07T12:59:53;14.50;99.90
29939;DHT22;16799;50.844;5.304;2023-04-07T13:02:19;14.50;99.90
29939;DHT22;16799;50.844;5.304;2023-04-07T13:04:45;14.60;99.90
29939;DHT22;16799;50.844;5.304;2023-04-07T13:07:14;14.50;99.90
29939;DHT22;16799;50.844;5.304;2023-04-07T13:09:40;14.30;99.90
29939;DHT22;16799;50.844;5.304;2023-04-07T13:12:09;14.50;99.90
29939;DHT22;16799;50.844;5.304;2023-04-07T13:14:36;14.70;99.90
29939;DHT22;16799;50.844;5.304;2023-04-07T13:17:02;14.60;99.90
29939;DHT22;16799;50.844;5.304;2023-04-07T13:19:29;14.60;99.90
29939;DHT22;16799;50.844;5.304;2023-04-07T13:21:55;14.50;99.90
29939;DHT22;16799;50.844;5.304;2023-04-07T13:24:21;14.60;99.90
29939;DHT22;16799;50.844;5.304;2023-04-07T13:26:47;14.50;99.90
29939;DHT22;16799;50.844;5.304;2023-04-07T13:29:13;14.50;99.90
29939;DHT22;16799;50.844;5.304;2023-04-07T13:31:39;14.60;99.90
29939;DHT22;16799;50.844;5.304;2023-04-07T13:34:04;14.70;99.90
29939;DHT22;16799;50.844;5.304;2023-04-07T13:36:30;14.30;99.90
29939;DHT22;16799;50.844;5.304;2023-04-07T13:38:56;14.40;99.90
29939;DHT22;16799;50.844;5.304;2023-04-07T13:41:22;14.60;99.90
29939;DHT22;16799;50.844;5.304;2023-04-07T13:43:48;14.40;99.90
29939;DHT22;16799;50.844;5.304;2023-04-07T13:46:13;14.40;99.90
29939;DHT22;16799;50.844;5.304;2023-04-07T13:48:45;14.30;99.90
29939;DHT22;16799;50.844;5.304;2023-04-07T13:51:11;14.50;99.90
29939;DHT22;16799;50.844;5.304;2023-04-07T13:53:37;14.70;99.90
29939;DHT22;16799;50.844;5.304;2023-04-07T13:56:03;14.70;99.90
29939;DHT22;16799;50.844;5.304;2023-04-07T13:58:33;14.90;99.90
29939;DHT22;16799;50.844;5.304;2023-04-07T14:00:58;15.10;99.90
29939;DHT22;16799;50.844;5.304;2023-04-07T14:03:24;15.10;99.90
29939;DHT22;16799;50.844;5.304;2023-04-07T14:05:50;15.50;99.90
29939;DHT22;16799;50.844;5.304;2023-04-07T14:08:15;15.60;99.70
29939;DHT22;16799;50.844;5.304;2023-04-07T14:10:43;15.60;99.10
29939;DHT22;16799;50.844;5.304;2023-04-07T14:13:08;15.60;97.90
29939;DHT22;16799;50.844;5.304;2023-04-07T14:15:35;15.70;98.50
29939;DHT22;16799;50.844;5.304;2023-04-07T14:18:01;15.80;99.10
29939;DHT22;16799;50.844;5.304;2023-04-07T14:20:27;15.60;96.10
29939;DHT22;16799;50.844;5.304;2023-04-07T14:22:52;14.70;99.90
29939;DHT22;16799;50.844;5.304;2023-04-07T14:25:18;14.60;99.90
29939;DHT22;16799;50.844;5.304;2023-04-07T14:27:43;14.70;99.90
29939;DHT22;16799;50.844;5.304;2023-04-07T14:30:11;14.50;99.60
29939;DHT22;16799;50.844;5.304;2023-04-07T14:32:36;14.40;99.90
29939;DHT22;16799;50.844;5.304;2023-04-07T14:35:02;14.00;99.90
29939;DHT22;16799;50.844;5.304;2023-04-07T14:37:28;13.60;99.90
29939;DHT22;16799;50.844;5.304;2023-04-07T14:39:54;13.10;99.90
29939;DHT22;16799;50.844;5.304;2023-04-07T14:42:20;13.40;99.90
29939;DHT22;16799;50.844;5.304;2023-04-07T14:44:46;13.90;99.90
29939;DHT22;16799;50.844;5.304;2023-04-07T14:47:12;14.60;99.90
29939;DHT22;16799;50.844;5.304;2023-04-07T14:49:37;15.00;99.90
29939;DHT22;16799;50.844;5.304;2023-04-07T14:52:03;15.00;99.10
29939;DHT22;16799;50.844;5.304;2023-04-07T14:54:29;15.10;99.80
29939;DHT22;16799;50.844;5.304;2023-04-07T14:56:55;15.10;99.90
29939;DHT22;16799;50.844;5.304;2023-04-07T14:59:21;15.30;99.40
29939;DHT22;16799;50.844;5.304;2023-04-07T15:01:46;15.40;99.30
29939;DHT22;16799;50.844;5.304;2023-04-07T15:04:12;15.50;98.50
29939;DHT22;16799;50.844;5.304;2023-04-07T15:06:41;15.30;99.20
29939;DHT22;16799;50.844;5.304;2023-04-07T15:09:08;15.30;99.10
29939;DHT22;16799;50.844;5.304;2023-04-07T15:11:33;15.20;99.20
29939;DHT22;16799;50.844;5.304;2023-04-07T15:14:00;15.00;98.30
29939;DHT22;16799;50.844;5.304;2023-04-07T15:16:26;14.80;99.80
29939;DHT22;16799;50.844;5.304;2023-04-07T15:18:51;15.20;99.70
29939;DHT22;16799;50.844;5.304;2023-04-07T15:21:17;15.70;99.30
29939;DHT22;16799;50.844;5.304;2023-04-07T15:23:44;15.70;98.30
29939;DHT22;16799;50.844;5.304;2023-04-07T15:26:11;15.80;97.30
29939;DHT22;16799;50.844;5.304;2023-04-07T15:28:37;15.80;97.00
29939;DHT22;16799;50.844;5.304;2023-04-07T15:31:03;15.90;97.30
29939;DHT22;16799;50.844;5.304;2023-04-07T15:33:37;15.80;97.30
29939;DHT22;16799;50.844;5.304;2023-04-07T15:36:06;16.00;97.40
29939;DHT22;16799;50.844;5.304;2023-04-07T15:38:32;15.80;98.70
29939;DHT22;16799;50.844;5.304;2023-04-07T15:40:58;15.70;97.80
29939;DHT22;16799;50.844;5.304;2023-04-07T15:43:24;15.50;96.90
29939;DHT22;16799;50.844;5.304;2023-04-07T15:45:50;15.60;97.80
29939;DHT22;16799;50.844;5.304;2023-04-07T15:48:16;15.60;97.70
29939;DHT22;16799;50.844;5.304;2023-04-07T15:50:42;15.40;97.80
29939;DHT22;16799;50.844;5.304;2023-04-07T15:53:08;15.30;97.30
29939;DHT22;16799;50.844;5.304;2023-04-07T15:55:35;14.80;98.60
29939;DHT22;16799;50.844;5.304;2023-04-07T15:58:02;14.20;99.90
29939;DHT22;16799;50.844;5.304;2023-04-07T16:00:29;14.00;99.90